sensor_id;sensor_type;location;lat;lon;timestamp;P1;durP1;ratioP1;P2;durP2;ratioP2
56794;SDS011;42678;59.400;18.410;2022-10-31T00:01:27;6.53;;;4.10;;
56794;SDS011;42678;59.400;18.410;2022-10-31T00:03:55;10.98;;;5.20;;
56794;SDS011;42678;59.400;18.410;2022-10-31T00:06:21;7.70;;;4.82;;
56794;SDS011;42678;59.400;18.410;2022-10-31T00:08:51;14.05;;;4.47;;
56794;SDS011;42678;59.400;18.410;2022-10-31T00:11:18;12.02;;;5.60;;
56794;SDS011;42678;59.400;18.410;2022-10-31T00:13:43;7.20;;;4.68;;
56794;SDS011;42678;59.400;18.410;2022-10-31T00:16:13;8.63;;;5.57;;
56794;SDS011;42678;59.400;18.410;2022-10-31T00:18:44;13.68;;;4.80;;
56794;SDS011;42678;59.400;18.410;2022-10-31T00:21:14;12.23;;;5.10;;
56794;SDS011;42678;59.400;18.410;2022-10-31T00:23:40;12.63;;;4.13;;
56794;SDS011;42678;59.400;18.410;2022-10-31T00:26:05;8.48;;;4.22;;
56794;SDS011;42678;59.400;18.410;2022-10-31T00:28:32;7.60;;;4.10;;
56794;SDS011;42678;59.400;18.410;2022-10-31T00:30:59;8.57;;;4.50;;
56794;SDS011;42678;59.400;18.410;2022-10-31T00:33:26;8.95;;;4.05;;
56794;SDS011;42678;59.400;18.410;2022-10-31T00:35:52;7.93;;;4.32;;
56794;SDS011;42678;59.400;18.410;2022-10-31T00:38:17;13.98;;;4.70;;
56794;SDS011;42678;59.400;18.410;2022-10-31T00:40:43;9.10;;;4.65;;
56794;SDS011;42678;59.400;18.410;2022-10-31T00:43:09;11.18;;;5.30;;
56794;SDS011;42678;59.400;18.410;2022-10-31T00:45:34;7.65;;;4.07;;
56794;SDS011;42678;59.400;18.410;2022-10-31T00:48:00;6.75;;;4.05;;
56794;SDS011;42678;59.400;18.410;2022-10-31T00:50:25;11.25;;;4.78;;
56794;SDS011;42678;59.400;18.410;2022-10-31T00:52:51;11.55;;;5.25;;
56794;SDS011;42678;59.400;18.410;2022-10-31T00:55:17;9.85;;;4.80;;
56794;SDS011;42678;59.400;18.410;2022-10-31T00:57:42;11.55;;;5.28;;
56794;SDS011;42678;59.400;18.410;2022-10-31T01:00:08;12.50;;;5.45;;
56794;SDS011;42678;59.400;18.410;2022-10-31T01:02:36;10.80;;;5.05;;
56794;SDS011;42678;59.400;18.410;2022-10-31T01:05:01;15.00;;;5.63;;
56794;SDS011;42678;59.400;18.410;2022-10-31T01:07:27;11.20;;;5.15;;
56794;SDS011;42678;59.400;18.410;2022-10-31T01:09:52;14.05;;;5.13;;
56794;SDS011;42678;59.400;18.410;2022-10-31T01:12:18;9.80;;;4.85;;
56794;SDS011;42678;59.400;18.410;2022-10-31T01:14:44;8.15;;;4.80;;
56794;SDS011;42678;59.400;18.410;2022-10-31T01:17:11;12.35;;;4.78;;
56794;SDS011;42678;59.400;18.410;2022-10-31T01:19:37;12.77;;;6.25;;
56794;SDS011;42678;59.400;18.410;2022-10-31T01:22:03;10.80;;;4.55;;
56794;SDS011;42678;59.400;18.410;2022-10-31T01:24:28;11.82;;;5.45;;
56794;SDS011;42678;59.400;18.410;2022-10-31T01:26:54;7.78;;;5.22;;
56794;SDS011;42678;59.400;18.410;2022-10-31T01:29:19;11.57;;;4.72;;
56794;SDS011;42678;59.400;18.410;2022-10-31T01:31:45;14.13;;;4.63;;
56794;SDS011;42678;59.400;18.410;2022-10-31T01:34:12;12.27;;;5.10;;
56794;SDS011;42678;59.400;18.410;2022-10-31T01:36:41;13.00;;;5.57;;
56794;SDS011;42678;59.400;18.410;2022-10-31T01:39:08;10.02;;;5.38;;
56794;SDS011;42678;59.400;18.410;2022-10-31T01:41:37;14.63;;;5.03;;
56794;SDS011;42678;59.400;18.410;2022-10-31T01:46:40;9.20;;;4.57;;
56794;SDS011;42678;59.400;18.410;2022-10-31T01:49:14;10.65;;;3.83;;
56794;SDS011;42678;59.400;18.410;2022-10-31T01:54:48;11.30;;;5.05;;
56794;SDS011;42678;59.400;18.410;2022-10-31T01:57:23;9.15;;;4.97;;
56794;SDS011;42678;59.400;18.410;2022-10-31T01:59:52;10.00;;;5.00;;
56794;SDS011;42678;59.400;18.410;2022-10-31T02:02:22;10.35;;;4.70;;
56794;SDS011;42678;59.400;18.410;2022-10-31T02:04:50;10.60;;;6.03;;
56794;SDS011;42678;59.400;18.410;2022-10-31T02:07:22;11.63;;;4.82;;
56794;SDS011;42678;59.400;18.410;2022-10-31T02:09:51;15.82;;;5.90;;
56794;SDS011;42678;59.400;18.410;2022-10-31T02:12:19;11.68;;;4.90;;
56794;SDS011;42678;59.400;18.410;2022-10-31T02:14:45;16.10;;;4.80;;
56794;SDS011;42678;59.400;18.410;2022-10-31T02:17:11;11.63;;;5.07;;
56794;SDS011;42678;59.400;18.410;2022-10-31T02:28:24;9.88;;;6.00;;
56794;SDS011;42678;59.400;18.410;2022-10-31T02:34:07;8.93;;;4.85;;
56794;SDS011;42678;59.400;18.410;2022-10-31T02:39:11;11.00;;;4.72;;
56794;SDS011;42678;59.400;18.410;2022-10-31T02:41:46;18.85;;;6.05;;
56794;SDS011;42678;59.400;18.410;2022-10-31T02:47:16;11.20;;;4.95;;
56794;SDS011;42678;59.400;18.410;2022-10-31T02:49:54;10.50;;;4.45;;
56794;SDS011;42678;59.400;18.410;2022-10-31T02:52:25;12.55;;;5.25;;
56794;SDS011;42678;59.400;18.410;2022-10-31T02:54:55;11.23;;;5.88;;
56794;SDS011;42678;59.400;18.410;2022-10-31T02:57:42;15.45;;;5.03;;
56794;SDS011;42678;59.400;18.410;2022-10-31T03:00:08;15.02;;;6.03;;
56794;SDS011;42678;59.400;18.410;2022-10-31T03:11:15;12.30;;;4.93;;
56794;SDS011;42678;59.400;18.410;2022-10-31T03:13:50;10.18;;;4.93;;
56794;SDS011;42678;59.400;18.410;2022-10-31T03:18:58;10.68;;;5.05;;
56794;SDS011;42678;59.400;18.410;2022-10-31T03:21:40;12.00;;;5.22;;
56794;SDS011;42678;59.400;18.410;2022-10-31T03:24:09;15.60;;;5.00;;
56794;SDS011;42678;59.400;18.410;2022-10-31T03:26:37;10.63;;;4.60;;
56794;SDS011;42678;59.400;18.410;2022-10-31T03:29:08;8.13;;;3.97;;
56794;SDS011;42678;59.400;18.410;2022-10-31T03:31:46;13.80;;;4.60;;
56794;SDS011;42678;59.400;18.410;2022-10-31T03:34:17;10.50;;;3.92;;
56794;SDS011;42678;59.400;18.410;2022-10-31T03:36:45;12.43;;;3.95;;
56794;SDS011;42678;59.400;18.410;2022-10-31T03:39:15;12.40;;;4.38;;
56794;SDS011;42678;59.400;18.410;2022-10-31T03:41:47;11.05;;;3.70;;
56794;SDS011;42678;59.400;18.410;2022-10-31T03:44:32;11.68;;;4.20;;
56794;SDS011;42678;59.400;18.410;2022-10-31T03:47:00;7.93;;;3.22;;
56794;SDS011;42678;59.400;18.410;2022-10-31T03:49:26;11.50;;;3.95;;
56794;SDS011;42678;59.400;18.410;2022-10-31T03:52:12;10.90;;;4.20;;
56794;SDS011;42678;59.400;18.410;2022-10-31T03:54:41;8.70;;;3.53;;
56794;SDS011;42678;59.400;18.410;2022-10-31T03:57:29;14.48;;;3.53;;
56794;SDS011;42678;59.400;18.410;2022-10-31T04:00:00;12.25;;;3.70;;
56794;SDS011;42678;59.400;18.410;2022-10-31T04:02:28;12.60;;;3.10;;
56794;SDS011;42678;59.400;18.410;2022-10-31T04:04:57;12.73;;;3.13;;
56794;SDS011;42678;59.400;18.410;2022-10-31T04:07:25;9.27;;;3.03;;
56794;SDS011;42678;59.400;18.410;2022-10-31T04:09:56;9.65;;;2.72;;
56794;SDS011;42678;59.400;18.410;2022-10-31T04:12:25;10.43;;;3.70;;
56794;SDS011;42678;59.400;18.410;2022-10-31T04:14:53;14.57;;;3.28;;
56794;SDS011;42678;59.400;18.410;2022-10-31T04:17:21;9.43;;;3.33;;
56794;SDS011;42678;59.400;18.410;2022-10-31T04:19:50;7.93;;;3.60;;
56794;SDS011;42678;59.400;18.410;2022-10-31T04:22:16;13.45;;;4.07;;
56794;SDS011;42678;59.400;18.410;2022-10-31T04:24:41;13.27;;;4.45;;
56794;SDS011;42678;59.400;18.410;2022-10-31T04:27:07;12.77;;;4.82;;
56794;SDS011;42678;59.400;18.410;2022-10-31T04:29:33;10.95;;;3.15;;
56794;SDS011;42678;59.400;18.410;2022-10-31T04:31:59;13.70;;;4.00;;
56794;SDS011;42678;59.400;18.410;2022-10-31T04:34:24;14.65;;;4.25;;
56794;SDS011;42678;59.400;18.410;2022-10-31T04:36:50;12.38;;;4.30;;
56794;SDS011;42678;59.400;18.410;2022-10-31T04:39:15;12.75;;;4.13;;
56794;SDS011;42678;59.400;18.410;2022-10-31T04:41:41;20.15;;;4.70;;
56794;SDS011;42678;59.400;18.410;2022-10-31T04:44:06;16.33;;;4.55;;
56794;SDS011;42678;59.400;18.410;2022-10-31T04:46:32;20.55;;;5.10;;
56794;SDS011;42678;59.400;18.410;2022-10-31T04:48:59;17.80;;;4.50;;
56794;SDS011;42678;59.400;18.410;2022-10-31T04:51:24;19.90;;;4.43;;
56794;SDS011;42678;59.400;18.410;2022-10-31T04:53:50;15.35;;;5.20;;
56794;SDS011;42678;59.400;18.410;2022-10-31T04:56:15;24.05;;;5.38;;
56794;SDS011;42678;59.400;18.410;2022-10-31T04:58:41;23.77;;;7.00;;
56794;SDS011;42678;59.400;18.410;2022-10-31T05:01:06;32.28;;;7.38;;
56794;SDS011;42678;59.400;18.410;2022-10-31T05:03:32;31.08;;;7.47;;
56794;SDS011;42678;59.400;18.410;2022-10-31T05:05:58;40.42;;;8.52;;
56794;SDS011;42678;59.400;18.410;2022-10-31T05:08:23;42.55;;;8.38;;
56794;SDS011;42678;59.400;18.410;2022-10-31T05:10:49;32.58;;;7.93;;
56794;SDS011;42678;59.400;18.410;2022-10-31T05:13:14;51.70;;;8.25;;
56794;SDS011;42678;59.400;18.410;2022-10-31T05:15:40;54.40;;;10.60;;
56794;SDS011;42678;59.400;18.410;2022-10-31T05:18:07;64.93;;;9.77;;
56794;SDS011;42678;59.400;18.410;2022-10-31T05:20:32;47.58;;;8.70;;
56794;SDS011;42678;59.400;18.410;2022-10-31T05:22:58;163.70;;;13.98;;
56794;SDS011;42678;59.400;18.410;2022-10-31T05:25:26;98.35;;;14.00;;
56794;SDS011;42678;59.400;18.410;2022-10-31T05:27:53;57.15;;;9.43;;
56794;SDS011;42678;59.400;18.410;2022-10-31T05:30:21;132.32;;;12.25;;
56794;SDS011;42678;59.400;18.410;2022-10-31T05:32:49;147.10;;;12.07;;
56794;SDS011;42678;59.400;18.410;2022-10-31T05:35:16;244.90;;;16.02;;
56794;SDS011;42678;59.400;18.410;2022-10-31T05:37:45;102.95;;;11.85;;
56794;SDS011;42678;59.400;18.410;2022-10-31T05:40:12;225.50;;;16.15;;
56794;SDS011;42678;59.400;18.410;2022-10-31T05:42:40;136.32;;;12.15;;
56794;SDS011;42678;59.400;18.410;2022-10-31T05:45:12;68.03;;;7.90;;
56794;SDS011;42678;59.400;18.410;2022-10-31T05:47:40;67.35;;;7.97;;
56794;SDS011;42678;59.400;18.410;2022-10-31T05:50:06;102.03;;;10.13;;
56794;SDS011;42678;59.400;18.410;2022-10-31T05:52:33;98.93;;;9.20;;
56794;SDS011;42678;59.400;18.410;2022-10-31T05:54:58;97.00;;;8.90;;
56794;SDS011;42678;59.400;18.410;2022-10-31T05:57:24;41.35;;;7.43;;
56794;SDS011;42678;59.400;18.410;2022-10-31T05:59:49;31.40;;;5.95;;
56794;SDS011;42678;59.400;18.410;2022-10-31T06:02:18;46.97;;;8.07;;
56794;SDS011;42678;59.400;18.410;2022-10-31T06:04:44;65.60;;;7.95;;
56794;SDS011;42678;59.400;18.410;2022-10-31T06:07:10;51.22;;;6.80;;
56794;SDS011;42678;59.400;18.410;2022-10-31T06:09:36;128.20;;;12.43;;
56794;SDS011;42678;59.400;18.410;2022-10-31T06:12:01;70.20;;;8.40;;
56794;SDS011;42678;59.400;18.410;2022-10-31T06:14:27;27.38;;;7.35;;
56794;SDS011;42678;59.400;18.410;2022-10-31T06:16:54;31.83;;;7.30;;
56794;SDS011;42678;59.400;18.410;2022-10-31T06:19:20;29.23;;;5.13;;
56794;SDS011;42678;59.400;18.410;2022-10-31T06:21:46;21.85;;;6.63;;
56794;SDS011;42678;59.400;18.410;2022-10-31T06:24:12;37.40;;;7.70;;
56794;SDS011;42678;59.400;18.410;2022-10-31T06:26:37;28.75;;;7.25;;
56794;SDS011;42678;59.400;18.410;2022-10-31T06:29:03;64.32;;;10.55;;
56794;SDS011;42678;59.400;18.410;2022-10-31T06:31:28;56.63;;;8.73;;
56794;SDS011;42678;59.400;18.410;2022-10-31T06:33:54;69.88;;;8.95;;
56794;SDS011;42678;59.400;18.410;2022-10-31T06:36:20;41.03;;;7.43;;
56794;SDS011;42678;59.400;18.410;2022-10-31T06:38:46;59.03;;;8.32;;
56794;SDS011;42678;59.400;18.410;2022-10-31T06:41:11;47.53;;;8.63;;
56794;SDS011;42678;59.400;18.410;2022-10-31T06:43:37;33.22;;;7.68;;
56794;SDS011;42678;59.400;18.410;2022-10-31T06:46:03;46.15;;;10.10;;
56794;SDS011;42678;59.400;18.410;2022-10-31T06:48:29;54.42;;;8.05;;
56794;SDS011;42678;59.400;18.410;2022-10-31T06:50:59;55.65;;;9.75;;
56794;SDS011;42678;59.400;18.410;2022-10-31T06:53:25;45.08;;;8.75;;
56794;SDS011;42678;59.400;18.410;2022-10-31T06:55:52;34.08;;;8.57;;
56794;SDS011;42678;59.400;18.410;2022-10-31T06:58:17;50.28;;;9.32;;
56794;SDS011;42678;59.400;18.410;2022-10-31T07:00:43;41.80;;;8.52;;
56794;SDS011;42678;59.400;18.410;2022-10-31T07:03:10;37.22;;;8.18;;
56794;SDS011;42678;59.400;18.410;2022-10-31T07:05:37;59.05;;;9.27;;
56794;SDS011;42678;59.400;18.410;2022-10-31T07:08:05;57.92;;;9.15;;
56794;SDS011;42678;59.400;18.410;2022-10-31T07:10:34;81.25;;;10.18;;
56794;SDS011;42678;59.400;18.410;2022-10-31T07:13:03;98.72;;;11.23;;
56794;SDS011;42678;59.400;18.410;2022-10-31T07:15:32;38.22;;;8.90;;
56794;SDS011;42678;59.400;18.410;2022-10-31T07:18:00;65.25;;;9.95;;
56794;SDS011;42678;59.400;18.410;2022-10-31T07:20:30;61.72;;;10.40;;
56794;SDS011;42678;59.400;18.410;2022-10-31T07:22:56;53.83;;;11.35;;
56794;SDS011;42678;59.400;18.410;2022-10-31T07:25:23;47.50;;;9.93;;
56794;SDS011;42678;59.400;18.410;2022-10-31T07:27:49;39.17;;;9.25;;
56794;SDS011;42678;59.400;18.410;2022-10-31T07:30:15;44.88;;;9.68;;
56794;SDS011;42678;59.400;18.410;2022-10-31T07:32:47;52.85;;;8.88;;
56794;SDS011;42678;59.400;18.410;2022-10-31T07:35:23;47.03;;;9.55;;
56794;SDS011;42678;59.400;18.410;2022-10-31T07:37:50;38.75;;;9.48;;
56794;SDS011;42678;59.400;18.410;2022-10-31T07:40:16;41.33;;;8.75;;
56794;SDS011;42678;59.400;18.410;2022-10-31T07:42:47;32.75;;;9.52;;
56794;SDS011;42678;59.400;18.410;2022-10-31T07:45:16;38.17;;;10.13;;
56794;SDS011;42678;59.400;18.410;2022-10-31T07:47:44;27.20;;;8.80;;
56794;SDS011;42678;59.400;18.410;2022-10-31T07:50:13;32.28;;;9.93;;
56794;SDS011;42678;59.400;18.410;2022-10-31T07:52:40;31.67;;;8.52;;
56794;SDS011;42678;59.400;18.410;2022-10-31T07:55:06;31.27;;;9.60;;
56794;SDS011;42678;59.400;18.410;2022-10-31T07:57:32;28.30;;;11.20;;
56794;SDS011;42678;59.400;18.410;2022-10-31T07:59:58;26.55;;;7.70;;
56794;SDS011;42678;59.400;18.410;2022-10-31T08:02:24;25.42;;;8.70;;
56794;SDS011;42678;59.400;18.410;2022-10-31T08:04:50;22.42;;;8.77;;
56794;SDS011;42678;59.400;18.410;2022-10-31T08:07:16;32.40;;;9.70;;
56794;SDS011;42678;59.400;18.410;2022-10-31T08:09:42;35.22;;;10.00;;
56794;SDS011;42678;59.400;18.410;2022-10-31T08:12:08;28.60;;;8.52;;
56794;SDS011;42678;59.400;18.410;2022-10-31T08:14:33;35.10;;;9.88;;
56794;SDS011;42678;59.400;18.410;2022-10-31T08:16:59;28.85;;;9.85;;
56794;SDS011;42678;59.400;18.410;2022-10-31T08:19:24;32.67;;;10.45;;
56794;SDS011;42678;59.400;18.410;2022-10-31T08:21:50;31.25;;;9.45;;
56794;SDS011;42678;59.400;18.410;2022-10-31T08:24:17;35.22;;;10.75;;
56794;SDS011;42678;59.400;18.410;2022-10-31T08:26:42;36.42;;;11.15;;
56794;SDS011;42678;59.400;18.410;2022-10-31T08:29:08;40.58;;;11.40;;
56794;SDS011;42678;59.400;18.410;2022-10-31T08:31:34;39.83;;;10.95;;
56794;SDS011;42678;59.400;18.410;2022-10-31T08:33:59;37.90;;;10.93;;
56794;SDS011;42678;59.400;18.410;2022-10-31T08:36:26;32.47;;;11.38;;
56794;SDS011;42678;59.400;18.410;2022-10-31T08:38:53;37.58;;;11.07;;
56794;SDS011;42678;59.400;18.410;2022-10-31T08:41:19;40.17;;;11.40;;
56794;SDS011;42678;59.400;18.410;2022-10-31T08:43:44;35.20;;;11.40;;
56794;SDS011;42678;59.400;18.410;2022-10-31T08:46:10;38.03;;;11.68;;
56794;SDS011;42678;59.400;18.410;2022-10-31T08:48:36;37.20;;;12.05;;
56794;SDS011;42678;59.400;18.410;2022-10-31T08:51:01;41.35;;;11.70;;
56794;SDS011;42678;59.400;18.410;2022-10-31T08:53:27;30.17;;;11.63;;
56794;SDS011;42678;59.400;18.410;2022-10-31T08:55:54;32.13;;;11.10;;
56794;SDS011;42678;59.400;18.410;2022-10-31T08:58:21;27.90;;;10.75;;
56794;SDS011;42678;59.400;18.410;2022-10-31T09:00:49;26.80;;;11.10;;
56794;SDS011;42678;59.400;18.410;2022-10-31T09:03:21;23.67;;;10.10;;
56794;SDS011;42678;59.400;18.410;2022-10-31T09:05:54;21.20;;;8.37;;
56794;SDS011;42678;59.400;18.410;2022-10-31T09:08:20;19.58;;;9.27;;
56794;SDS011;42678;59.400;18.410;2022-10-31T09:10:46;24.05;;;11.38;;
56794;SDS011;42678;59.400;18.410;2022-10-31T09:13:13;20.77;;;9.32;;
56794;SDS011;42678;59.400;18.410;2022-10-31T09:15:41;21.63;;;9.02;;
56794;SDS011;42678;59.400;18.410;2022-10-31T09:18:09;17.77;;;8.77;;
56794;SDS011;42678;59.400;18.410;2022-10-31T09:20:37;23.05;;;9.23;;
56794;SDS011;42678;59.400;18.410;2022-10-31T09:23:14;20.20;;;8.93;;
56794;SDS011;42678;59.400;18.410;2022-10-31T09:25:42;19.30;;;9.05;;
56794;SDS011;42678;59.400;18.410;2022-10-31T09:28:10;19.38;;;9.52;;
56794;SDS011;42678;59.400;18.410;2022-10-31T09:30:37;19.55;;;10.02;;
56794;SDS011;42678;59.400;18.410;2022-10-31T09:33:04;20.15;;;9.75;;
56794;SDS011;42678;59.400;18.410;2022-10-31T09:35:31;18.13;;;8.68;;
56794;SDS011;42678;59.400;18.410;2022-10-31T09:37:58;17.40;;;9.60;;
56794;SDS011;42678;59.400;18.410;2022-10-31T09:40:27;22.50;;;14.50;;
56794;SDS011;42678;59.400;18.410;2022-10-31T09:51:04;23.55;;;9.27;;
56794;SDS011;42678;59.400;18.410;2022-10-31T09:53:35;19.23;;;10.13;;
56794;SDS011;42678;59.400;18.410;2022-10-31T09:56:04;17.85;;;8.80;;
56794;SDS011;42678;59.400;18.410;2022-10-31T09:58:35;17.80;;;8.77;;
56794;SDS011;42678;59.400;18.410;2022-10-31T10:03:53;20.08;;;12.75;;
56794;SDS011;42678;59.400;18.410;2022-10-31T10:06:25;14.23;;;8.02;;
56794;SDS011;42678;59.400;18.410;2022-10-31T10:08:55;15.30;;;9.63;;
56794;SDS011;42678;59.400;18.410;2022-10-31T10:13:59;16.60;;;12.65;;
56794;SDS011;42678;59.400;18.410;2022-10-31T10:16:36;19.95;;;13.82;;
56794;SDS011;42678;59.400;18.410;2022-10-31T10:19:27;15.85;;;8.70;;
56794;SDS011;42678;59.400;18.410;2022-10-31T10:24:51;18.85;;;9.15;;
56794;SDS011;42678;59.400;18.410;2022-10-31T10:27:58;18.52;;;9.80;;
56794;SDS011;42678;59.400;18.410;2022-10-31T10:30:40;15.57;;;9.15;;
56794;SDS011;42678;59.400;18.410;2022-10-31T10:33:54;20.33;;;9.20;;
56794;SDS011;42678;59.400;18.410;2022-10-31T10:36:10;17.27;;;10.50;;
56794;SDS011;42678;59.400;18.410;2022-10-31T10:41:21;17.92;;;10.18;;
56794;SDS011;42678;59.400;18.410;2022-10-31T10:43:49;22.00;;;12.20;;
56794;SDS011;42678;59.400;18.410;2022-10-31T10:46:25;21.05;;;10.50;;
56794;SDS011;42678;59.400;18.410;2022-10-31T10:49:39;16.25;;;9.63;;
56794;SDS011;42678;59.400;18.410;2022-10-31T10:54:56;14.85;;;8.93;;
56794;SDS011;42678;59.400;18.410;2022-10-31T10:57:56;15.27;;;8.88;;
56794;SDS011;42678;59.400;18.410;2022-10-31T11:00:27;15.07;;;9.05;;
56794;SDS011;42678;59.400;18.410;2022-10-31T11:03:12;14.07;;;8.75;;
56794;SDS011;42678;59.400;18.410;2022-10-31T11:05:53;15.02;;;9.20;;
56794;SDS011;42678;59.400;18.410;2022-10-31T11:08:25;13.57;;;8.68;;
56794;SDS011;42678;59.400;18.410;2022-10-31T11:10:59;12.02;;;8.32;;
56794;SDS011;42678;59.400;18.410;2022-10-31T11:13:32;15.23;;;9.25;;
56794;SDS011;42678;59.400;18.410;2022-10-31T11:16:04;13.35;;;7.88;;
56794;SDS011;42678;59.400;18.410;2022-10-31T11:18:37;13.50;;;8.90;;
56794;SDS011;42678;59.400;18.410;2022-10-31T11:21:17;14.30;;;8.57;;
56794;SDS011;42678;59.400;18.410;2022-10-31T11:23:46;12.73;;;8.20;;
56794;SDS011;42678;59.400;18.410;2022-10-31T11:26:19;12.77;;;9.43;;
56794;SDS011;42678;59.400;18.410;2022-10-31T11:28:55;12.73;;;7.88;;
56794;SDS011;42678;59.400;18.410;2022-10-31T11:31:22;14.55;;;8.23;;
56794;SDS011;42678;59.400;18.410;2022-10-31T11:33:50;14.82;;;7.85;;
56794;SDS011;42678;59.400;18.410;2022-10-31T11:36:31;15.88;;;9.32;;
56794;SDS011;42678;59.400;18.410;2022-10-31T11:39:00;13.60;;;7.93;;
56794;SDS011;42678;59.400;18.410;2022-10-31T11:41:30;15.30;;;9.45;;
56794;SDS011;42678;59.400;18.410;2022-10-31T11:46:43;15.13;;;8.93;;
56794;SDS011;42678;59.400;18.410;2022-10-31T11:49:19;17.23;;;9.40;;
56794;SDS011;42678;59.400;18.410;2022-10-31T11:51:54;11.80;;;6.90;;
56794;SDS011;42678;59.400;18.410;2022-10-31T11:54:29;13.73;;;7.93;;
56794;SDS011;42678;59.400;18.410;2022-10-31T11:57:01;14.98;;;7.68;;
56794;SDS011;42678;59.400;18.410;2022-10-31T11:59:29;12.27;;;8.02;;
56794;SDS011;42678;59.400;18.410;2022-10-31T12:02:00;14.25;;;8.27;;
56794;SDS011;42678;59.400;18.410;2022-10-31T12:04:46;12.82;;;6.93;;
56794;SDS011;42678;59.400;18.410;2022-10-31T12:07:17;10.55;;;6.43;;
56794;SDS011;42678;59.400;18.410;2022-10-31T12:09:43;11.05;;;7.28;;
56794;SDS011;42678;59.400;18.410;2022-10-31T12:12:18;10.00;;;6.70;;
56794;SDS011;42678;59.400;18.410;2022-10-31T12:34:44;13.00;;;6.63;;
56794;SDS011;42678;59.400;18.410;2022-10-31T12:37:20;11.55;;;6.53;;
56794;SDS011;42678;59.400;18.410;2022-10-31T12:45:49;15.57;;;6.72;;
56794;SDS011;42678;59.400;18.410;2022-10-31T12:51:29;12.73;;;6.35;;
56794;SDS011;42678;59.400;18.410;2022-10-31T12:57:23;13.00;;;6.18;;
56794;SDS011;42678;59.400;18.410;2022-10-31T13:00:10;12.70;;;5.00;;
56794;SDS011;42678;59.400;18.410;2022-10-31T13:05:41;10.65;;;5.25;;
56794;SDS011;42678;59.400;18.410;2022-10-31T13:08:12;14.30;;;6.60;;
56794;SDS011;42678;59.400;18.410;2022-10-31T13:10:46;10.63;;;5.53;;
56794;SDS011;42678;59.400;18.410;2022-10-31T13:18:54;15.65;;;7.18;;
56794;SDS011;42678;59.400;18.410;2022-10-31T13:21:55;10.48;;;4.88;;
56794;SDS011;42678;59.400;18.410;2022-10-31T13:24:43;12.45;;;5.47;;
56794;SDS011;42678;59.400;18.410;2022-10-31T13:27:18;9.40;;;5.55;;
56794;SDS011;42678;59.400;18.410;2022-10-31T13:32:22;10.27;;;6.00;;
56794;SDS011;42678;59.400;18.410;2022-10-31T13:34:53;11.88;;;6.15;;
56794;SDS011;42678;59.400;18.410;2022-10-31T13:37:36;9.38;;;5.18;;
56794;SDS011;42678;59.400;18.410;2022-10-31T13:45:14;13.63;;;5.88;;
56794;SDS011;42678;59.400;18.410;2022-10-31T13:47:42;15.35;;;7.50;;
56794;SDS011;42678;59.400;18.410;2022-10-31T13:52:43;14.15;;;6.80;;
56794;SDS011;42678;59.400;18.410;2022-10-31T13:55:34;11.65;;;6.13;;
56794;SDS011;42678;59.400;18.410;2022-10-31T13:58:03;12.10;;;6.13;;
56794;SDS011;42678;59.400;18.410;2022-10-31T14:00:30;11.65;;;5.70;;
56794;SDS011;42678;59.400;18.410;2022-10-31T14:03:00;12.30;;;5.82;;
56794;SDS011;42678;59.400;18.410;2022-10-31T14:07:56;9.75;;;5.55;;
56794;SDS011;42678;59.400;18.410;2022-10-31T14:16:15;7.68;;;5.18;;
56794;SDS011;42678;59.400;18.410;2022-10-31T14:21:43;13.50;;;6.00;;
56794;SDS011;42678;59.400;18.410;2022-10-31T14:26:54;10.23;;;5.25;;
56794;SDS011;42678;59.400;18.410;2022-10-31T14:29:28;8.68;;;4.97;;
56794;SDS011;42678;59.400;18.410;2022-10-31T14:34:39;10.38;;;5.18;;
56794;SDS011;42678;59.400;18.410;2022-10-31T14:37:25;10.50;;;5.13;;
56794;SDS011;42678;59.400;18.410;2022-10-31T14:50:58;10.43;;;5.22;;
56794;SDS011;42678;59.400;18.410;2022-10-31T14:53:36;10.70;;;4.70;;
56794;SDS011;42678;59.400;18.410;2022-10-31T14:56:19;9.38;;;5.13;;
56794;SDS011;42678;59.400;18.410;2022-10-31T14:58:49;13.13;;;4.75;;
56794;SDS011;42678;59.400;18.410;2022-10-31T15:01:21;12.65;;;6.40;;
56794;SDS011;42678;59.400;18.410;2022-10-31T15:03:50;7.75;;;4.13;;
56794;SDS011;42678;59.400;18.410;2022-10-31T15:06:18;11.25;;;5.10;;
56794;SDS011;42678;59.400;18.410;2022-10-31T15:08:48;11.13;;;5.03;;
56794;SDS011;42678;59.400;18.410;2022-10-31T15:11:26;7.75;;;4.38;;
56794;SDS011;42678;59.400;18.410;2022-10-31T15:13:56;9.70;;;4.72;;
56794;SDS011;42678;59.400;18.410;2022-10-31T15:16:23;9.10;;;5.40;;
56794;SDS011;42678;59.400;18.410;2022-10-31T15:18:55;7.10;;;4.70;;
56794;SDS011;42678;59.400;18.410;2022-10-31T15:21:24;13.18;;;5.00;;
56794;SDS011;42678;59.400;18.410;2022-10-31T15:23:53;11.95;;;4.75;;
56794;SDS011;42678;59.400;18.410;2022-10-31T15:26:22;11.00;;;4.07;;
56794;SDS011;42678;59.400;18.410;2022-10-31T15:29:00;10.02;;;4.05;;
56794;SDS011;42678;59.400;18.410;2022-10-31T15:31:27;7.30;;;3.28;;
56794;SDS011;42678;59.400;18.410;2022-10-31T15:33:53;8.90;;;4.15;;
56794;SDS011;42678;59.400;18.410;2022-10-31T15:36:25;5.68;;;3.20;;
56794;SDS011;42678;59.400;18.410;2022-10-31T15:38:51;5.28;;;3.00;;
56794;SDS011;42678;59.400;18.410;2022-10-31T15:43:55;8.05;;;3.13;;
56794;SDS011;42678;59.400;18.410;2022-10-31T15:46:26;6.97;;;2.67;;
56794;SDS011;42678;59.400;18.410;2022-10-31T15:48:52;10.65;;;6.47;;
56794;SDS011;42678;59.400;18.410;2022-10-31T15:51:24;7.03;;;3.65;;
56794;SDS011;42678;59.400;18.410;2022-10-31T15:53:52;11.50;;;3.72;;
56794;SDS011;42678;59.400;18.410;2022-10-31T15:56:21;6.15;;;3.22;;
56794;SDS011;42678;59.400;18.410;2022-10-31T15:58:50;8.50;;;3.13;;
56794;SDS011;42678;59.400;18.410;2022-10-31T16:04:21;9.93;;;3.97;;
56794;SDS011;42678;59.400;18.410;2022-10-31T16:10:40;8.88;;;4.55;;
56794;SDS011;42678;59.400;18.410;2022-10-31T16:12:50;8.60;;;4.10;;
56794;SDS011;42678;59.400;18.410;2022-10-31T16:15:18;9.20;;;4.82;;
56794;SDS011;42678;59.400;18.410;2022-10-31T16:17:49;11.02;;;5.18;;
56794;SDS011;42678;59.400;18.410;2022-10-31T16:20:21;10.18;;;4.70;;
56794;SDS011;42678;59.400;18.410;2022-10-31T16:22:52;11.38;;;4.63;;
56794;SDS011;42678;59.400;18.410;2022-10-31T16:25:26;7.82;;;4.90;;
56794;SDS011;42678;59.400;18.410;2022-10-31T16:27:55;9.60;;;5.28;;
56794;SDS011;42678;59.400;18.410;2022-10-31T16:32:53;10.65;;;5.13;;
56794;SDS011;42678;59.400;18.410;2022-10-31T16:35:31;12.35;;;5.10;;
56794;SDS011;42678;59.400;18.410;2022-10-31T16:38:04;13.73;;;4.85;;
56794;SDS011;42678;59.400;18.410;2022-10-31T16:40:30;8.43;;;4.90;;
56794;SDS011;42678;59.400;18.410;2022-10-31T16:42:57;14.85;;;5.90;;
56794;SDS011;42678;59.400;18.410;2022-10-31T16:45:24;10.93;;;4.60;;
56794;SDS011;42678;59.400;18.410;2022-10-31T16:48:01;8.65;;;4.45;;
56794;SDS011;42678;59.400;18.410;2022-10-31T16:50:29;12.82;;;4.53;;
56794;SDS011;42678;59.400;18.410;2022-10-31T16:52:55;12.18;;;5.03;;
56794;SDS011;42678;59.400;18.410;2022-10-31T16:55:20;7.40;;;4.10;;
56794;SDS011;42678;59.400;18.410;2022-10-31T16:57:50;11.43;;;4.75;;
56794;SDS011;42678;59.400;18.410;2022-10-31T17:00:19;10.32;;;4.45;;
56794;SDS011;42678;59.400;18.410;2022-10-31T17:02:50;10.25;;;4.55;;
56794;SDS011;42678;59.400;18.410;2022-10-31T17:05:18;12.90;;;4.97;;